sensor_id;sensor_type;location;lat;lon;timestamp;pressure;altitude;pressure_sealevel;temperature
81177;BMP280;74095;48.270;14.200;2024-03-25T00:01:15;97029.34;;;6.23
81177;BMP280;74095;48.270;14.200;2024-03-25T00:03:41;97026.25;;;6.16
81177;BMP280;74095;48.270;14.200;2024-03-25T00:06:06;97049.47;;;6.24
81177;BMP280;74095;48.270;14.200;2024-03-25T00:08:32;97042.34;;;6.20
81177;BMP280;74095;48.270;14.200;2024-03-25T00:10:58;97044.16;;;6.24
81177;BMP280;74095;48.270;14.200;2024-03-25T00:13:24;97041.88;;;6.37
81177;BMP280;74095;48.270;14.200;2024-03-25T00:15:50;97045.06;;;6.34
81177;BMP280;74095;48.270;14.200;2024-03-25T00:18:16;97024.41;;;6.36
81177;BMP280;74095;48.270;14.200;2024-03-25T00:20:42;97028.75;;;6.45
81177;BMP280;74095;48.270;14.200;2024-03-25T00:23:08;97025.63;;;6.43
81177;BMP280;74095;48.270;14.200;2024-03-25T00:25:34;97034.28;;;6.49
81177;BMP280;74095;48.270;14.200;2024-03-25T00:28:00;97034.06;;;6.45
81177;BMP280;74095;48.270;14.200;2024-03-25T00:30:25;97044.16;;;6.43
81177;BMP280;74095;48.270;14.200;2024-03-25T00:32:51;97036.09;;;6.53
81177;BMP280;74095;48.270;14.200;2024-03-25T00:35:17;97037.06;;;6.57
81177;BMP280;74095;48.270;14.200;2024-03-25T00:37:44;97035.88;;;6.50
81177;BMP280;74095;48.270;14.200;2024-03-25T00:40:11;97030.97;;;6.57
81177;BMP280;74095;48.270;14.200;2024-03-25T00:42:37;97035.88;;;6.50
81177;BMP280;74095;48.270;14.200;2024-03-25T00:45:04;97034.78;;;6.51
81177;BMP280;74095;48.270;14.200;2024-03-25T00:47:32;97039.59;;;6.49
81177;BMP280;74095;48.270;14.200;2024-03-25T00:49:58;97042.09;;;6.59
81177;BMP280;74095;48.270;14.200;2024-03-25T00:52:23;97039.22;;;6.55
81177;BMP280;74095;48.270;14.200;2024-03-25T00:54:49;97026.41;;;6.44
81177;BMP280;74095;48.270;14.200;2024-03-25T00:57:15;97033.00;;;6.46
81177;BMP280;74095;48.270;14.200;2024-03-25T00:59:41;97021.59;;;6.46
81177;BMP280;74095;48.270;14.200;2024-03-25T01:02:07;97025.81;;;6.47
81177;BMP280;74095;48.270;14.200;2024-03-25T01:04:34;97030.19;;;6.56
81177;BMP280;74095;48.270;14.200;2024-03-25T01:07:00;97026.72;;;6.56
81177;BMP280;74095;48.270;14.200;2024-03-25T01:09:26;97018.41;;;6.49
81177;BMP280;74095;48.270;14.200;2024-03-25T01:11:52;97031.59;;;6.54
81177;BMP280;74095;48.270;14.200;2024-03-25T01:14:17;97021.41;;;6.61
81177;BMP280;74095;48.270;14.200;2024-03-25T01:16:43;97031.06;;;6.52
81177;BMP280;74095;48.270;14.200;2024-03-25T01:19:09;97028.47;;;6.47
81177;BMP280;74095;48.270;14.200;2024-03-25T01:21:35;97045.75;;;6.63
81177;BMP280;74095;48.270;14.200;2024-03-25T01:24:01;97040.44;;;6.63
81177;BMP280;74095;48.270;14.200;2024-03-25T01:26:27;97033.63;;;6.57
81177;BMP280;74095;48.270;14.200;2024-03-25T01:28:54;97035.72;;;6.60
81177;BMP280;74095;48.270;14.200;2024-03-25T01:31:20;97035.09;;;6.49
81177;BMP280;74095;48.270;14.200;2024-03-25T01:33:46;97038.84;;;6.62
81177;BMP280;74095;48.270;14.200;2024-03-25T01:36:12;97029.84;;;6.63
81177;BMP280;74095;48.270;14.200;2024-03-25T01:38:45;97035.28;;;6.71
81177;BMP280;74095;48.270;14.200;2024-03-25T01:41:12;97030.41;;;6.60
81177;BMP280;74095;48.270;14.200;2024-03-25T01:43:38;97033.63;;;6.57
81177;BMP280;74095;48.270;14.200;2024-03-25T01:46:05;97036.50;;;6.60
81177;BMP280;74095;48.270;14.200;2024-03-25T01:48:31;97024.31;;;6.59
81177;BMP280;74095;48.270;14.200;2024-03-25T01:50:57;97021.41;;;6.61
81177;BMP280;74095;48.270;14.200;2024-03-25T01:53:25;97028.84;;;6.59
81177;BMP280;74095;48.270;14.200;2024-03-25T01:55:52;97035.72;;;6.60
81177;BMP280;74095;48.270;14.200;2024-03-25T01:58:21;97035.19;;;6.58
81177;BMP280;74095;48.270;14.200;2024-03-25T02:00:47;97020.00;;;6.45
81177;BMP280;74095;48.270;14.200;2024-03-25T02:03:13;97003.28;;;6.49
81177;BMP280;74095;48.270;14.200;2024-03-25T02:05:39;97018.22;;;6.59
81177;BMP280;74095;48.270;14.200;2024-03-25T02:08:06;97027.06;;;6.54
81177;BMP280;74095;48.270;14.200;2024-03-25T02:10:32;97037.69;;;6.68
81177;BMP280;74095;48.270;14.200;2024-03-25T02:12:58;97025.75;;;6.70
81177;BMP280;74095;48.270;14.200;2024-03-25T02:15:24;97025.06;;;6.65
81177;BMP280;74095;48.270;14.200;2024-03-25T02:17:52;97015.41;;;6.69
81177;BMP280;74095;48.270;14.200;2024-03-25T02:20:18;97028.31;;;6.76
81177;BMP280;74095;48.270;14.200;2024-03-25T02:22:44;97026.94;;;6.78
81177;BMP280;74095;48.270;14.200;2024-03-25T02:25:10;97021.50;;;6.88
81177;BMP280;74095;48.270;14.200;2024-03-25T02:27:37;97021.84;;;6.82
81177;BMP280;74095;48.270;14.200;2024-03-25T02:30:07;97020.78;;;6.83
81177;BMP280;74095;48.270;14.200;2024-03-25T02:32:34;97011.97;;;6.87
81177;BMP280;74095;48.270;14.200;2024-03-25T02:35:01;97018.78;;;6.93
81177;BMP280;74095;48.270;14.200;2024-03-25T02:37:27;97010.91;;;6.88
81177;BMP280;74095;48.270;14.200;2024-03-25T02:39:56;97009.31;;;6.87
81177;BMP280;74095;48.270;14.200;2024-03-25T02:42:23;97007.59;;;6.78
81177;BMP280;74095;48.270;14.200;2024-03-25T02:44:50;97014.53;;;6.92
81177;BMP280;74095;48.270;14.200;2024-03-25T02:47:16;97014.38;;;6.84
81177;BMP280;74095;48.270;14.200;2024-03-25T02:49:43;97006.25;;;6.80
81177;BMP280;74095;48.270;14.200;2024-03-25T02:52:09;97024.09;;;6.93
81177;BMP280;74095;48.270;14.200;2024-03-25T02:54:35;97014.44;;;6.97
81177;BMP280;74095;48.270;14.200;2024-03-25T02:57:01;97011.72;;;7.02
81177;BMP280;74095;48.270;14.200;2024-03-25T02:59:26;97002.88;;;6.93
81177;BMP280;74095;48.270;14.200;2024-03-25T03:01:52;97013.06;;;7.00
81177;BMP280;74095;48.270;14.200;2024-03-25T03:04:18;96999.59;;;6.96
81177;BMP280;74095;48.270;14.200;2024-03-25T03:06:44;97012.28;;;6.99
81177;BMP280;74095;48.270;14.200;2024-03-25T03:09:10;97007.38;;;7.06
81177;BMP280;74095;48.270;14.200;2024-03-25T03:11:36;97010.97;;;7.15
81177;BMP280;74095;48.270;14.200;2024-03-25T03:14:02;97011.50;;;6.99
81177;BMP280;74095;48.270;14.200;2024-03-25T03:16:28;97000.66;;;6.95
81177;BMP280;74095;48.270;14.200;2024-03-25T03:18:55;97020.91;;;6.91
81177;BMP280;74095;48.270;14.200;2024-03-25T03:21:21;97026.03;;;7.01
81177;BMP280;74095;48.270;14.200;2024-03-25T03:23:47;97025.47;;;7.04
81177;BMP280;74095;48.270;14.200;2024-03-25T03:26:13;97017.75;;;6.89
81177;BMP280;74095;48.270;14.200;2024-03-25T03:28:40;97026.56;;;7.03
81177;BMP280;74095;48.270;14.200;2024-03-25T03:31:06;97023.91;;;7.03
81177;BMP280;74095;48.270;14.200;2024-03-25T03:33:32;97017.75;;;6.89
81177;BMP280;74095;48.270;14.200;2024-03-25T03:35:58;97027.63;;;7.02
81177;BMP280;74095;48.270;14.200;2024-03-25T03:38:24;97033.13;;;7.06
81177;BMP280;74095;48.270;14.200;2024-03-25T03:41:01;97037.06;;;7.08
81177;BMP280;74095;48.270;14.200;2024-03-25T03:43:27;97027.16;;;7.14
81177;BMP280;74095;48.270;14.200;2024-03-25T03:45:54;97030.59;;;7.14
81177;BMP280;74095;48.270;14.200;2024-03-25T03:48:20;97030.97;;;7.08
81177;BMP280;74095;48.270;14.200;2024-03-25T03:50:45;97028.59;;;7.06
81177;BMP280;74095;48.270;14.200;2024-03-25T03:53:11;97015.00;;;6.94
81177;BMP280;74095;48.270;14.200;2024-03-25T03:55:37;97020.31;;;6.94
81177;BMP280;74095;48.270;14.200;2024-03-25T03:58:04;97044.56;;;7.20
81177;BMP280;74095;48.270;14.200;2024-03-25T04:00:34;97035.81;;;7.19
81177;BMP280;74095;48.270;14.200;2024-03-25T04:03:01;97050.06;;;7.23
81177;BMP280;74095;48.270;14.200;2024-03-25T04:05:29;97034.50;;;7.03
81177;BMP280;74095;48.270;14.200;2024-03-25T04:07:55;97035.91;;;7.14
81177;BMP280;74095;48.270;14.200;2024-03-25T04:10:23;97046.13;;;7.21
81177;BMP280;74095;48.270;14.200;2024-03-25T04:12:51;97045.34;;;7.20
81177;BMP280;74095;48.270;14.200;2024-03-25T04:15:18;97043.94;;;7.09
81177;BMP280;74095;48.270;14.200;2024-03-25T04:17:44;97047.31;;;7.15
81177;BMP280;74095;48.270;14.200;2024-03-25T04:20:12;97055.56;;;7.13
81177;BMP280;74095;48.270;14.200;2024-03-25T04:22:44;97055.72;;;7.03
81177;BMP280;74095;48.270;14.200;2024-03-25T04:25:10;97055.72;;;7.03
81177;BMP280;74095;48.270;14.200;2024-03-25T04:27:40;97055.13;;;7.06
81177;BMP280;74095;48.270;14.200;2024-03-25T04:30:07;97064.50;;;7.17
81177;BMP280;74095;48.270;14.200;2024-03-25T04:32:34;97063.22;;;7.15
81177;BMP280;74095;48.270;14.200;2024-03-25T04:35:01;97066.06;;;7.05
81177;BMP280;74095;48.270;14.200;2024-03-25T04:37:27;97061.53;;;7.05
81177;BMP280;74095;48.270;14.200;2024-03-25T04:39:56;97066.75;;;7.10
81177;BMP280;74095;48.270;14.200;2024-03-25T04:42:23;97064.66;;;7.07
81177;BMP280;74095;48.270;14.200;2024-03-25T04:44:49;97060.84;;;7.13
81177;BMP280;74095;48.270;14.200;2024-03-25T04:47:16;97075.78;;;7.09
81177;BMP280;74095;48.270;14.200;2024-03-25T04:49:43;97080.03;;;7.24
81177;BMP280;74095;48.270;14.200;2024-03-25T04:52:09;97070.28;;;7.19
81177;BMP280;74095;48.270;14.200;2024-03-25T04:54:35;97069.34;;;7.15
81177;BMP280;74095;48.270;14.200;2024-03-25T04:57:00;97080.44;;;7.17
81177;BMP280;74095;48.270;14.200;2024-03-25T04:59:26;97088.22;;;7.28
81177;BMP280;74095;48.270;14.200;2024-03-25T05:01:52;97085.63;;;7.22
81177;BMP280;74095;48.270;14.200;2024-03-25T05:04:18;97089.38;;;7.21
81177;BMP280;74095;48.270;14.200;2024-03-25T05:06:46;97095.09;;;7.29
81177;BMP280;74095;48.270;14.200;2024-03-25T05:09:11;97093.06;;;7.39
81177;BMP280;74095;48.270;14.200;2024-03-25T05:11:37;97089.59;;;7.39
81177;BMP280;74095;48.270;14.200;2024-03-25T05:14:03;97093.41;;;7.33
81177;BMP280;74095;48.270;14.200;2024-03-25T05:16:29;97098.81;;;7.28
81177;BMP280;74095;48.270;14.200;2024-03-25T05:18:56;97094.78;;;7.30
81177;BMP280;74095;48.270;14.200;2024-03-25T05:21:22;97100.81;;;7.36
81177;BMP280;74095;48.270;14.200;2024-03-25T05:23:47;97108.88;;;7.44
81177;BMP280;74095;48.270;14.200;2024-03-25T05:26:13;97104.34;;;7.45
81177;BMP280;74095;48.270;14.200;2024-03-25T05:28:39;97111.44;;;7.49
81177;BMP280;74095;48.270;14.200;2024-03-25T05:31:08;97100.22;;;7.39
81177;BMP280;74095;48.270;14.200;2024-03-25T05:33:35;97104.94;;;7.42
81177;BMP280;74095;48.270;14.200;2024-03-25T05:36:01;97119.00;;;7.42
81177;BMP280;74095;48.270;14.200;2024-03-25T05:38:27;97111.34;;;7.41
81177;BMP280;74095;48.270;14.200;2024-03-25T05:40:53;97127.78;;;7.56
81177;BMP280;74095;48.270;14.200;2024-03-25T05:43:19;97122.25;;;7.53
81177;BMP280;74095;48.270;14.200;2024-03-25T05:45:55;97119.41;;;7.49
81177;BMP280;74095;48.270;14.200;2024-03-25T05:48:22;97113.03;;;7.50
81177;BMP280;74095;48.270;14.200;2024-03-25T05:51:08;97123.25;;;7.57
81177;BMP280;74095;48.270;14.200;2024-03-25T05:53:34;97134.38;;;7.59
81177;BMP280;74095;48.270;14.200;2024-03-25T05:56:00;97126.91;;;7.61
81177;BMP280;74095;48.270;14.200;2024-03-25T05:58:27;97137.41;;;7.66
81177;BMP280;74095;48.270;14.200;2024-03-25T06:00:53;97136.47;;;7.62
81177;BMP280;74095;48.270;14.200;2024-03-25T06:03:20;97141.97;;;7.65
81177;BMP280;74095;48.270;14.200;2024-03-25T06:05:46;97144.53;;;7.70
81177;BMP280;74095;48.270;14.200;2024-03-25T06:08:12;97151.63;;;7.75
81177;BMP280;74095;48.270;14.200;2024-03-25T06:10:51;97151.22;;;7.68
81177;BMP280;74095;48.270;14.200;2024-03-25T06:13:17;97159.88;;;7.74
81177;BMP280;74095;48.270;14.200;2024-03-25T06:15:43;97157.59;;;7.67
81177;BMP280;74095;48.270;14.200;2024-03-25T06:18:09;97161.03;;;7.67
81177;BMP280;74095;48.270;14.200;2024-03-25T06:20:35;97161.75;;;7.73
81177;BMP280;74095;48.270;14.200;2024-03-25T06:23:01;97155.53;;;7.78
81177;BMP280;74095;48.270;14.200;2024-03-25T06:25:30;97167.38;;;7.85
81177;BMP280;74095;48.270;14.200;2024-03-25T06:27:56;97159.28;;;7.77
81177;BMP280;74095;48.270;14.200;2024-03-25T06:30:22;97170.41;;;7.79
81177;BMP280;74095;48.270;14.200;2024-03-25T06:33:06;97166.41;;;7.81
81177;BMP280;74095;48.270;14.200;2024-03-25T06:35:50;97158.31;;;7.72
81177;BMP280;74095;48.270;14.200;2024-03-25T06:38:17;97180.94;;;7.84
81177;BMP280;74095;48.270;14.200;2024-03-25T06:40:44;97171.31;;;7.74
81177;BMP280;74095;48.270;14.200;2024-03-25T06:43:10;97171.78;;;7.76
81177;BMP280;74095;48.270;14.200;2024-03-25T06:45:37;97181.28;;;7.96
81177;BMP280;74095;48.270;14.200;2024-03-25T06:48:03;97180.47;;;8.09
81177;BMP280;74095;48.270;14.200;2024-03-25T06:50:29;97172.41;;;8.00
81177;BMP280;74095;48.270;14.200;2024-03-25T06:52:55;97193.19;;;8.12
81177;BMP280;74095;48.270;14.200;2024-03-25T06:55:20;97174.84;;;8.10
81177;BMP280;74095;48.270;14.200;2024-03-25T06:57:50;97180.16;;;8.10
81177;BMP280;74095;48.270;14.200;2024-03-25T07:00:16;97181.88;;;8.06
81177;BMP280;74095;48.270;14.200;2024-03-25T07:02:42;97179.50;;;8.18
81177;BMP280;74095;48.270;14.200;2024-03-25T07:05:08;97187.47;;;8.18
81177;BMP280;74095;48.270;14.200;2024-03-25T07:07:35;97184.53;;;8.20
81177;BMP280;74095;48.270;14.200;2024-03-25T07:10:01;97176.16;;;8.27
81177;BMP280;74095;48.270;14.200;2024-03-25T07:12:27;97198.69;;;8.43
81177;BMP280;74095;48.270;14.200;2024-03-25T07:14:54;97195.97;;;8.48
81177;BMP280;74095;48.270;14.200;2024-03-25T07:17:20;97192.28;;;8.57
81177;BMP280;74095;48.270;14.200;2024-03-25T07:19:47;97188.03;;;8.43
81177;BMP280;74095;48.270;14.200;2024-03-25T07:22:14;97201.22;;;8.61
81177;BMP280;74095;48.270;14.200;2024-03-25T07:24:40;97191.00;;;8.55
81177;BMP280;74095;48.270;14.200;2024-03-25T07:27:06;97197.56;;;8.71
81177;BMP280;74095;48.270;14.200;2024-03-25T07:29:33;97210.56;;;8.73
81177;BMP280;74095;48.270;14.200;2024-03-25T07:31:59;97207.50;;;8.79
81177;BMP280;74095;48.270;14.200;2024-03-25T07:34:25;97199.03;;;8.77
81177;BMP280;74095;48.270;14.200;2024-03-25T07:36:52;97204.16;;;8.87
81177;BMP280;74095;48.270;14.200;2024-03-25T07:39:18;97206.09;;;8.95
81177;BMP280;74095;48.270;14.200;2024-03-25T07:41:44;97197.47;;;8.76
81177;BMP280;74095;48.270;14.200;2024-03-25T07:44:10;97215.00;;;8.77
81177;BMP280;74095;48.270;14.200;2024-03-25T07:46:35;97197.09;;;8.69
81177;BMP280;74095;48.270;14.200;2024-03-25T07:49:01;97216.56;;;8.92
81177;BMP280;74095;48.270;14.200;2024-03-25T07:51:27;97210.63;;;8.95
81177;BMP280;74095;48.270;14.200;2024-03-25T07:53:53;97215.53;;;9.01
81177;BMP280;74095;48.270;14.200;2024-03-25T07:56:21;97213.00;;;8.96
81177;BMP280;74095;48.270;14.200;2024-03-25T07:58:49;97211.56;;;9.12
81177;BMP280;74095;48.270;14.200;2024-03-25T08:01:15;97209.56;;;9.18
81177;BMP280;74095;48.270;14.200;2024-03-25T08:03:41;97211.34;;;9.09
81177;BMP280;74095;48.270;14.200;2024-03-25T08:06:07;97214.53;;;9.11
81177;BMP280;74095;48.270;14.200;2024-03-25T08:08:33;97234.44;;;9.13
81177;BMP280;74095;48.270;14.200;2024-03-25T08:10:59;97234.22;;;9.10
81177;BMP280;74095;48.270;14.200;2024-03-25T08:13:25;97240.63;;;9.09
81177;BMP280;74095;48.270;14.200;2024-03-25T08:15:52;97233.88;;;8.89
81177;BMP280;74095;48.270;14.200;2024-03-25T08:18:18;97240.00;;;8.90
81177;BMP280;74095;48.270;14.200;2024-03-25T08:20:44;97236.22;;;9.04
81177;BMP280;74095;48.270;14.200;2024-03-25T08:23:10;97233.88;;;9.03
81177;BMP280;74095;48.270;14.200;2024-03-25T08:25:36;97241.50;;;9.18
81177;BMP280;74095;48.270;14.200;2024-03-25T08:28:02;97245.09;;;9.13
81177;BMP280;74095;48.270;14.200;2024-03-25T08:30:28;97230.47;;;9.25
81177;BMP280;74095;48.270;14.200;2024-03-25T08:32:54;97247.94;;;9.39
81177;BMP280;74095;48.270;14.200;2024-03-25T08:35:20;97245.06;;;9.71
81177;BMP280;74095;48.270;14.200;2024-03-25T08:37:46;97244.63;;;9.78
81177;BMP280;74095;48.270;14.200;2024-03-25T08:40:12;97244.63;;;9.78
81177;BMP280;74095;48.270;14.200;2024-03-25T08:42:38;97236.38;;;9.88
81177;BMP280;74095;48.270;14.200;2024-03-25T08:45:04;97243.88;;;9.86
81177;BMP280;74095;48.270;14.200;2024-03-25T08:47:30;97237.97;;;9.98
81177;BMP280;74095;48.270;14.200;2024-03-25T08:49:56;97239.78;;;10.11
81177;BMP280;74095;48.270;14.200;2024-03-25T08:52:22;97246.63;;;10.03
81177;BMP280;74095;48.270;14.200;2024-03-25T08:54:47;97244.81;;;10.12
81177;BMP280;74095;48.270;14.200;2024-03-25T08:57:14;97246.72;;;10.20
81177;BMP280;74095;48.270;14.200;2024-03-25T08:59:40;97243.09;;;10.25
81177;BMP280;74095;48.270;14.200;2024-03-25T09:02:06;97235.38;;;10.46
81177;BMP280;74095;48.270;14.200;2024-03-25T09:04:33;97246.34;;;10.53
81177;BMP280;74095;48.270;14.200;2024-03-25T09:06:59;97230.53;;;10.82
81177;BMP280;74095;48.270;14.200;2024-03-25T09:09:25;97222.22;;;10.66
81177;BMP280;74095;48.270;14.200;2024-03-25T09:12:09;97219.69;;;10.61
81177;BMP280;74095;48.270;14.200;2024-03-25T09:14:35;97240.84;;;10.58
81177;BMP280;74095;48.270;14.200;2024-03-25T09:17:04;97236.97;;;10.55
81177;BMP280;74095;48.270;14.200;2024-03-25T09:19:30;97231.50;;;10.21
81177;BMP280;74095;48.270;14.200;2024-03-25T09:21:56;97233.28;;;10.43
81177;BMP280;74095;48.270;14.200;2024-03-25T09:24:22;97244.16;;;10.55
81177;BMP280;74095;48.270;14.200;2024-03-25T09:26:51;97236.19;;;10.72
81177;BMP280;74095;48.270;14.200;2024-03-25T09:29:17;97244.09;;;11.03
81177;BMP280;74095;48.270;14.200;2024-03-25T09:31:43;97246.03;;;11.74
81177;BMP280;74095;48.270;14.200;2024-03-25T09:34:09;97219.97;;;11.71
81177;BMP280;74095;48.270;14.200;2024-03-25T09:36:35;97230.19;;;12.16
81177;BMP280;74095;48.270;14.200;2024-03-25T09:39:01;97226.97;;;11.93
81177;BMP280;74095;48.270;14.200;2024-03-25T09:41:28;97246.66;;;11.80
81177;BMP280;74095;48.270;14.200;2024-03-25T09:43:55;97241.78;;;11.82
81177;BMP280;74095;48.270;14.200;2024-03-25T09:46:23;97243.97;;;11.80
81177;BMP280;74095;48.270;14.200;2024-03-25T09:48:52;97231.72;;;11.79
81177;BMP280;74095;48.270;14.200;2024-03-25T09:51:19;97236.94;;;11.75
81177;BMP280;74095;48.270;14.200;2024-03-25T09:53:46;97243.47;;;11.95
81177;BMP280;74095;48.270;14.200;2024-03-25T09:56:12;97215.63;;;11.96
81177;BMP280;74095;48.270;14.200;2024-03-25T09:58:39;97242.06;;;11.98
81177;BMP280;74095;48.270;14.200;2024-03-25T10:01:05;97244.66;;;12.15
81177;BMP280;74095;48.270;14.200;2024-03-25T10:03:31;97241.13;;;12.31
81177;BMP280;74095;48.270;14.200;2024-03-25T10:05:57;97242.94;;;12.48
81177;BMP280;74095;48.270;14.200;2024-03-25T10:08:23;97234.22;;;12.60
81177;BMP280;74095;48.270;14.200;2024-03-25T10:10:51;97232.97;;;12.99
81177;BMP280;74095;48.270;14.200;2024-03-25T10:13:17;97235.13;;;13.38
81177;BMP280;74095;48.270;14.200;2024-03-25T10:15:43;97226.78;;;13.39
81177;BMP280;74095;48.270;14.200;2024-03-25T10:18:11;97229.31;;;13.36
81177;BMP280;74095;48.270;14.200;2024-03-25T10:20:37;97217.72;;;13.11
81177;BMP280;74095;48.270;14.200;2024-03-25T10:23:03;97219.63;;;13.11
81177;BMP280;74095;48.270;14.200;2024-03-25T10:25:30;97225.06;;;13.02
81177;BMP280;74095;48.270;14.200;2024-03-25T10:28:00;97218.25;;;13.05
81177;BMP280;74095;48.270;14.200;2024-03-25T10:30:27;97215.00;;;12.99
81177;BMP280;74095;48.270;14.200;2024-03-25T10:33:04;97222.44;;;13.14
81177;BMP280;74095;48.270;14.200;2024-03-25T10:35:32;97222.97;;;13.08
81177;BMP280;74095;48.270;14.200;2024-03-25T10:38:06;97221.97;;;13.12
81177;BMP280;74095;48.270;14.200;2024-03-25T10:40:34;97225.88;;;13.03
81177;BMP280;74095;48.270;14.200;2024-03-25T10:43:02;97210.00;;;13.30
81177;BMP280;74095;48.270;14.200;2024-03-25T10:45:29;97211.50;;;13.52
81177;BMP280;74095;48.270;14.200;2024-03-25T10:48:00;97201.59;;;13.65
81177;BMP280;74095;48.270;14.200;2024-03-25T10:50:31;97198.94;;;13.65
81177;BMP280;74095;48.270;14.200;2024-03-25T10:52:58;97201.84;;;13.84
81177;BMP280;74095;48.270;14.200;2024-03-25T10:55:26;97208.34;;;14.19
81177;BMP280;74095;48.270;14.200;2024-03-25T10:57:54;97201.22;;;14.63
81177;BMP280;74095;48.270;14.200;2024-03-25T11:00:22;97192.09;;;15.07
81177;BMP280;74095;48.270;14.200;2024-03-25T11:02:48;97201.88;;;15.00
81177;BMP280;74095;48.270;14.200;2024-03-25T11:05:15;97183.13;;;14.76
81177;BMP280;74095;48.270;14.200;2024-03-25T11:07:41;97185.47;;;14.49
81177;BMP280;74095;48.270;14.200;2024-03-25T11:10:09;97194.16;;;14.58
81177;BMP280;74095;48.270;14.200;2024-03-25T11:12:36;97195.13;;;14.26
81177;BMP280;74095;48.270;14.200;2024-03-25T11:15:04;97192.00;;;14.24
81177;BMP280;74095;48.270;14.200;2024-03-25T11:17:31;97191.31;;;14.39
81177;BMP280;74095;48.270;14.200;2024-03-25T11:20:11;97174.84;;;14.81
81177;BMP280;74095;48.270;14.200;2024-03-25T11:22:52;97184.13;;;15.11
81177;BMP280;74095;48.270;14.200;2024-03-25T11:25:20;97178.75;;;15.27
81177;BMP280;74095;48.270;14.200;2024-03-25T11:27:47;97169.22;;;15.13
81177;BMP280;74095;48.270;14.200;2024-03-25T11:30:14;97177.88;;;15.07
81177;BMP280;74095;48.270;14.200;2024-03-25T11:32:51;97167.13;;;15.07
81177;BMP280;74095;48.270;14.200;2024-03-25T11:35:17;97167.13;;;15.07
81177;BMP280;74095;48.270;14.200;2024-03-25T11:37:44;97169.47;;;14.81
81177;BMP280;74095;48.270;14.200;2024-03-25T11:40:11;97156.41;;;14.51
81177;BMP280;74095;48.270;14.200;2024-03-25T11:42:43;97172.28;;;14.44
81177;BMP280;74095;48.270;14.200;2024-03-25T11:45:17;97169.25;;;14.46
81177;BMP280;74095;48.270;14.200;2024-03-25T11:47:45;97163.50;;;14.59
81177;BMP280;74095;48.270;14.200;2024-03-25T11:50:15;97155.94;;;14.77
81177;BMP280;74095;48.270;14.200;2024-03-25T11:52:42;97148.22;;;14.76
81177;BMP280;74095;48.270;14.200;2024-03-25T11:55:09;97138.13;;;14.85
81177;BMP280;74095;48.270;14.200;2024-03-25T11:57:38;97143.47;;;15.12
81177;BMP280;74095;48.270;14.200;2024-03-25T12:00:05;97133.16;;;15.30
81177;BMP280;74095;48.270;14.200;2024-03-25T12:02:32;97120.50;;;15.31
81177;BMP280;74095;48.270;14.200;2024-03-25T12:04:58;97136.28;;;15.16
81177;BMP280;74095;48.270;14.200;2024-03-25T12:07:24;97131.94;;;15.12
81177;BMP280;74095;48.270;14.200;2024-03-25T12:09:49;97123.06;;;14.96
81177;BMP280;74095;48.270;14.200;2024-03-25T12:12:34;97122.63;;;14.66
81177;BMP280;74095;48.270;14.200;2024-03-25T12:15:00;97116.59;;;14.29
81177;BMP280;74095;48.270;14.200;2024-03-25T12:17:29;97100.00;;;13.99
81177;BMP280;74095;48.270;14.200;2024-03-25T12:20:05;97118.78;;;13.87
81177;BMP280;74095;48.270;14.200;2024-03-25T12:22:33;97120.94;;;13.70
81177;BMP280;74095;48.270;14.200;2024-03-25T12:25:02;97112.44;;;13.92
81177;BMP280;74095;48.270;14.200;2024-03-25T12:27:36;97111.06;;;13.98
81177;BMP280;74095;48.270;14.200;2024-03-25T12:30:05;97105.16;;;13.80
81177;BMP280;74095;48.270;14.200;2024-03-25T12:32:42;97105.94;;;13.44
81177;BMP280;74095;48.270;14.200;2024-03-25T12:35:12;97105.94;;;13.44
81177;BMP280;74095;48.270;14.200;2024-03-25T12:37:39;97105.94;;;13.57
81177;BMP280;74095;48.270;14.200;2024-03-25T12:40:06;97083.47;;;13.49
81177;BMP280;74095;48.270;14.200;2024-03-25T12:42:34;97105.28;;;13.60
81177;BMP280;74095;48.270;14.200;2024-03-25T12:45:00;97091.44;;;13.58
81177;BMP280;74095;48.270;14.200;2024-03-25T12:47:26;97100.50;;;13.53
81177;BMP280;74095;48.270;14.200;2024-03-25T12:49:52;97098.03;;;13.48
81177;BMP280;74095;48.270;14.200;2024-03-25T12:52:18;97103.50;;;13.52
81177;BMP280;74095;48.270;14.200;2024-03-25T12:54:44;97100.13;;;13.42
81177;BMP280;74095;48.270;14.200;2024-03-25T12:57:11;97097.81;;;13.53
81177;BMP280;74095;48.270;14.200;2024-03-25T12:59:37;97096.22;;;13.76
81177;BMP280;74095;48.270;14.200;2024-03-25T13:02:03;97086.03;;;13.94
81177;BMP280;74095;48.270;14.200;2024-03-25T13:04:29;97079.31;;;14.12
81177;BMP280;74095;48.270;14.200;2024-03-25T13:06:55;97079.47;;;14.31
81177;BMP280;74095;48.270;14.200;2024-03-25T13:09:21;97072.06;;;14.40
81177;BMP280;74095;48.270;14.200;2024-03-25T13:11:47;97065.31;;;14.46
81177;BMP280;74095;48.270;14.200;2024-03-25T13:14:13;97075.53;;;14.41
81177;BMP280;74095;48.270;14.200;2024-03-25T13:16:39;97081.28;;;14.27
81177;BMP280;74095;48.270;14.200;2024-03-25T13:19:06;97068.69;;;14.16
81177;BMP280;74095;48.270;14.200;2024-03-25T13:21:32;97066.13;;;14.07
81177;BMP280;74095;48.270;14.200;2024-03-25T13:23:58;97077.28;;;14.09
81177;BMP280;74095;48.270;14.200;2024-03-25T13:26:24;97071.72;;;14.14
81177;BMP280;74095;48.270;14.200;2024-03-25T13:28:52;97075.69;;;14.20
81177;BMP280;74095;48.270;14.200;2024-03-25T13:31:18;97063.44;;;14.07
81177;BMP280;74095;48.270;14.200;2024-03-25T13:33:44;97065.44;;;14.10
81177;BMP280;74095;48.270;14.200;2024-03-25T13:36:10;97052.09;;;13.74
81177;BMP280;74095;48.270;14.200;2024-03-25T13:38:36;97063.72;;;13.78
81177;BMP280;74095;48.270;14.200;2024-03-25T13:41:03;97071.34;;;13.76
81177;BMP280;74095;48.270;14.200;2024-03-25T13:43:29;97048.78;;;13.65
81177;BMP280;74095;48.270;14.200;2024-03-25T13:45:55;97058.13;;;13.71
81177;BMP280;74095;48.270;14.200;2024-03-25T13:48:21;97059.94;;;13.79
81177;BMP280;74095;48.270;14.200;2024-03-25T13:50:47;97053.41;;;13.92
81177;BMP280;74095;48.270;14.200;2024-03-25T13:53:13;97054.31;;;13.96
81177;BMP280;74095;48.270;14.200;2024-03-25T13:55:39;97048.94;;;14.08
81177;BMP280;74095;48.270;14.200;2024-03-25T13:58:06;97053.25;;;14.13
81177;BMP280;74095;48.270;14.200;2024-03-25T14:00:33;97050.34;;;14.18
81177;BMP280;74095;48.270;14.200;2024-03-25T14:03:03;97036.38;;;14.12